createdAt,value
2023-05-10T00:02:27.502Z,2.65
2023-05-10T00:04:55.086Z,1.88
2023-05-10T00:07:22.849Z,2.22
2023-05-10T00:09:50.380Z,2.40
2023-05-10T00:12:17.898Z,2.45
2023-05-10T00:14:46.142Z,1.98
2023-05-10T00:17:13.649Z,1.70
2023-05-10T00:19:42.401Z,1.65
2023-05-10T00:22:09.836Z,1.80
2023-05-10T00:24:37.292Z,2.15
2023-05-10T00:27:05.051Z,1.90
2023-05-10T00:29:32.884Z,2.72
2023-05-10T00:32:00.393Z,2.38
2023-05-10T00:34:28.236Z,3.15
2023-05-10T00:36:55.850Z,1.90
2023-05-10T00:39:23.364Z,1.80
2023-05-10T00:41:50.932Z,1.98
2023-05-10T00:44:19.510Z,2.50
2023-05-10T00:46:47.592Z,2.67
2023-05-10T00:49:15.342Z,2.50
2023-05-10T00:51:44.055Z,2.60
2023-05-10T00:54:14.979Z,2.50
2023-05-10T00:56:49.529Z,2.33
2023-05-10T00:59:18.848Z,3.03
2023-05-10T01:01:47.318Z,2.78
2023-05-10T01:04:15.833Z,2.83
2023-05-10T01:06:44.043Z,3.25
2023-05-10T01:09:12.793Z,4.13
2023-05-10T01:11:41.438Z,3.85
2023-05-10T01:14:09.585Z,3.70
2023-05-10T01:16:42.764Z,3.42
2023-05-10T01:19:32.340Z,3.33
2023-05-10T01:21:59.761Z,3.45
2023-05-10T01:24:38.354Z,3.63
2023-05-10T01:27:28.624Z,2.50
2023-05-10T01:30:32.968Z,2.78
2023-05-10T01:33:23.118Z,2.42
2023-05-10T01:36:09.427Z,2.63
2023-05-10T01:38:53.669Z,3.35
2023-05-10T01:41:57.517Z,3.58
2023-05-10T01:44:45.311Z,2.60
2023-05-10T01:47:18.233Z,3.20
2023-05-10T01:49:51.120Z,2.92
2023-05-10T01:52:22.772Z,2.60
2023-05-10T01:55:05.695Z,2.35
2023-05-10T01:57:48.386Z,3.60
2023-05-10T02:00:17.482Z,3.60
2023-05-10T02:02:50.135Z,3.42
2023-05-10T02:05:19.785Z,4.03
2023-05-10T02:07:48.888Z,2.95
2023-05-10T02:10:18.292Z,3.75
2023-05-10T02:12:50.516Z,3.45
2023-05-10T02:15:23.323Z,3.35
2023-05-10T02:17:52.142Z,4.05
2023-05-10T02:20:21.382Z,4.05
2023-05-10T02:22:52.575Z,3.38
2023-05-10T02:25:24.248Z,3.22
2023-05-10T02:27:55.066Z,3.00
2023-05-10T02:30:24.117Z,3.78
2023-05-10T02:32:53.415Z,4.15
2023-05-10T02:35:22.127Z,2.55
2023-05-10T02:37:49.990Z,3.60
2023-05-10T02:40:19.363Z,2.83
2023-05-10T02:42:49.959Z,3.03
2023-05-10T02:45:22.893Z,2.25
2023-05-10T02:47:50.803Z,3.28
2023-05-10T02:50:18.837Z,2.78
2023-05-10T02:52:55.430Z,2.90
2023-05-10T02:55:26.607Z,2.70
2023-05-10T02:58:00.074Z,3.28
2023-05-10T03:00:28.065Z,3.28
2023-05-10T03:02:55.872Z,3.67
2023-05-10T03:05:24.406Z,2.97
2023-05-10T03:07:53.109Z,4.20
2023-05-10T03:10:23.189Z,2.55
2023-05-10T03:12:59.691Z,4.18
2023-05-10T03:15:45.536Z,3.33
2023-05-10T03:18:19.527Z,3.63
2023-05-10T03:20:55.891Z,2.97
2023-05-10T03:23:36.669Z,3.90
2023-05-10T03:26:05.625Z,3.00
2023-05-10T03:28:35.170Z,4.05
2023-05-10T03:31:05.575Z,4.35
2023-05-10T03:33:34.180Z,3.80
2023-05-10T03:36:01.712Z,4.57
2023-05-10T03:38:30.546Z,3.45
2023-05-10T03:40:58.408Z,4.35
2023-05-10T03:43:25.969Z,4.90
2023-05-10T03:45:53.707Z,4.53
2023-05-10T03:48:21.369Z,3.80
2023-05-10T03:50:50.500Z,4.85
2023-05-10T03:53:18.080Z,4.65
2023-05-10T03:55:45.913Z,4.95
2023-05-10T03:58:13.362Z,4.68
2023-05-10T04:00:46.248Z,4.93
2023-05-10T04:03:15.598Z,5.50
2023-05-10T04:05:43.174Z,6.75
2023-05-10T04:08:10.793Z,7.32
2023-05-10T04:10:38.357Z,5.28
2023-05-10T04:13:05.953Z,5.78
2023-05-10T04:15:33.456Z,5.72
2023-05-10T04:18:01.300Z,4.45
2023-05-10T04:20:28.882Z,4.07
2023-05-10T04:22:56.334Z,3.78
2023-05-10T04:25:23.790Z,3.60
2023-05-10T04:27:51.312Z,3.58
2023-05-10T04:30:19.510Z,3.30
2023-05-10T04:32:47.019Z,2.83
2023-05-10T04:35:15.964Z,2.90
2023-05-10T04:37:44.219Z,3.28
2023-05-10T04:40:12.037Z,2.72
2023-05-10T04:42:42.329Z,3.00
2023-05-10T04:45:10.767Z,3.50
2023-05-10T04:47:38.283Z,3.08
2023-05-10T04:50:06.553Z,3.30
2023-05-10T04:52:34.220Z,3.10
2023-05-10T04:55:01.680Z,2.72
2023-05-10T04:57:29.144Z,2.58
2023-05-10T04:59:56.674Z,2.85
2023-05-10T05:02:24.759Z,2.80
2023-05-10T05:04:52.311Z,1.95
2023-05-10T05:07:19.762Z,2.83
2023-05-10T05:09:47.191Z,2.28
2023-05-10T05:12:15.362Z,2.40
2023-05-10T05:14:42.927Z,2.00
2023-05-10T05:17:10.380Z,2.17
2023-05-10T05:19:39.402Z,2.20
2023-05-10T05:22:08.936Z,2.00
2023-05-10T05:24:39.098Z,2.45
2023-05-10T05:27:07.068Z,2.08
2023-05-10T05:29:34.781Z,2.38
2023-05-10T05:32:02.382Z,2.65
2023-05-10T05:34:29.980Z,2.30
2023-05-10T05:36:57.465Z,3.10
2023-05-10T05:39:24.968Z,2.97
2023-05-10T05:41:52.492Z,2.50
2023-05-10T05:44:19.898Z,2.95
2023-05-10T05:46:47.362Z,2.90
2023-05-10T05:49:14.990Z,3.03
2023-05-10T05:51:42.548Z,3.00
2023-05-10T05:54:10.039Z,3.38
2023-05-10T05:56:38.940Z,3.33
2023-05-10T05:59:06.487Z,4.25
2023-05-10T06:01:33.947Z,3.08
2023-05-10T06:04:02.033Z,3.58
2023-05-10T06:06:29.810Z,3.97
2023-05-10T06:08:57.274Z,3.92
2023-05-10T06:11:25.006Z,4.22
2023-05-10T06:13:52.462Z,4.45
2023-05-10T06:16:19.962Z,4.50
2023-05-10T06:18:47.454Z,4.63
2023-05-10T06:21:15.879Z,3.42
2023-05-10T06:23:43.384Z,3.40
2023-05-10T06:26:11.345Z,3.65
2023-05-10T06:28:41.812Z,3.20
2023-05-10T06:31:09.424Z,3.20
2023-05-10T06:33:36.900Z,4.53
2023-05-10T06:36:04.954Z,4.85
2023-05-10T06:38:32.530Z,4.38
2023-05-10T06:41:00.818Z,3.88
2023-05-10T06:43:29.755Z,4.10
2023-05-10T06:45:57.423Z,3.72
2023-05-10T06:48:24.903Z,3.97
2023-05-10T06:50:52.344Z,3.58
2023-05-10T06:53:19.926Z,3.80
2023-05-10T06:55:47.574Z,3.05
2023-05-10T06:58:14.996Z,3.80
2023-05-10T07:00:44.695Z,4.05
2023-05-10T07:03:12.372Z,2.95
2023-05-10T07:05:39.914Z,3.38
2023-05-10T07:08:07.743Z,4.32
2023-05-10T07:10:35.352Z,3.58
2023-05-10T07:13:02.992Z,4.47
2023-05-10T07:15:30.712Z,3.20
2023-05-10T07:17:58.429Z,3.08
2023-05-10T07:20:26.050Z,3.60
2023-05-10T07:22:53.607Z,2.90
2023-05-10T07:25:21.120Z,2.95
2023-05-10T07:27:49.666Z,2.80
2023-05-10T07:30:17.316Z,3.97
2023-05-10T07:32:45.454Z,4.20
2023-05-10T07:35:12.951Z,4.00
2023-05-10T07:37:40.626Z,3.10
2023-05-10T07:40:08.719Z,2.72
2023-05-10T07:42:36.216Z,2.78
2023-05-10T07:45:04.124Z,3.05
2023-05-10T07:47:31.703Z,3.15
2023-05-10T07:49:59.206Z,3.03
2023-05-10T07:52:26.742Z,2.72
2023-05-10T07:54:54.647Z,2.70
2023-05-10T07:57:22.460Z,3.15
2023-05-10T07:59:50.069Z,2.55
2023-05-10T08:02:17.656Z,3.70
2023-05-10T08:04:45.255Z,3.78
2023-05-10T08:07:12.964Z,3.50
2023-05-10T08:09:40.535Z,3.05
2023-05-10T08:12:08.033Z,2.72
2023-05-10T08:14:37.500Z,3.42
2023-05-10T08:17:05.437Z,3.67
2023-05-10T08:19:33.245Z,3.45
2023-05-10T08:22:00.826Z,3.90
2023-05-10T08:24:28.518Z,3.38
2023-05-10T08:26:56.100Z,3.53
2023-05-10T08:29:23.950Z,3.97
2023-05-10T08:31:51.607Z,3.58
2023-05-10T08:34:19.153Z,3.67
2023-05-10T08:36:46.693Z,3.83
2023-05-10T08:39:23.351Z,4.00
2023-05-10T08:42:02.390Z,3.20
2023-05-10T08:44:31.967Z,5.13
2023-05-10T08:47:03.734Z,3.42
2023-05-10T08:49:33.150Z,3.25
2023-05-10T08:52:05.079Z,2.80
2023-05-10T08:54:34.206Z,3.03
2023-05-10T08:57:01.759Z,4.03
2023-05-10T08:59:29.928Z,4.45
2023-05-10T09:01:59.621Z,5.03
2023-05-10T09:04:27.459Z,5.13
2023-05-10T09:06:55.544Z,5.82
2023-05-10T09:09:24.918Z,4.60
2023-05-10T09:11:53.547Z,5.40
2023-05-10T09:14:21.519Z,4.85
2023-05-10T09:16:49.354Z,3.80
2023-05-10T09:19:16.894Z,3.42
2023-05-10T09:21:44.705Z,3.30
2023-05-10T09:24:13.411Z,2.60
2023-05-10T09:26:51.276Z,3.08
2023-05-10T09:29:18.917Z,3.28
2023-05-10T09:31:48.052Z,3.55
2023-05-10T09:34:32.480Z,3.13
2023-05-10T09:37:05.442Z,2.45
2023-05-10T09:39:33.489Z,2.92
2023-05-10T09:42:04.896Z,2.38
2023-05-10T09:44:33.992Z,2.13
2023-05-10T09:47:02.609Z,3.42
2023-05-10T09:49:30.599Z,2.58
2023-05-10T09:52:05.777Z,2.13
2023-05-10T09:54:33.949Z,2.40
2023-05-10T09:57:02.118Z,2.20
2023-05-10T09:59:30.895Z,2.60
2023-05-10T10:02:01.885Z,3.03
2023-05-10T10:04:29.696Z,3.22
2023-05-10T10:07:05.217Z,3.50
2023-05-10T10:09:33.917Z,3.50
2023-05-10T10:12:03.012Z,3.90
2023-05-10T10:14:31.003Z,3.55
2023-05-10T10:17:08.038Z,3.10
2023-05-10T10:19:37.934Z,5.28
2023-05-10T10:22:06.941Z,3.95
2023-05-10T10:24:34.889Z,3.90
2023-05-10T10:27:16.536Z,3.60
2023-05-10T10:30:18.394Z,3.35
2023-05-10T10:33:24.219Z,2.88
2023-05-10T10:35:56.724Z,3.03
2023-05-10T10:38:24.420Z,2.40
2023-05-10T10:41:10.216Z,2.60
2023-05-10T10:43:37.741Z,2.88
2023-05-10T10:46:18.685Z,3.20
2023-05-10T10:49:08.750Z,2.05
2023-05-10T10:51:39.829Z,3.17
2023-05-10T10:54:11.502Z,3.20
2023-05-10T10:56:39.360Z,2.85
2023-05-10T10:59:06.844Z,2.70
2023-05-10T11:01:38.250Z,2.83
2023-05-10T11:04:05.835Z,2.92
2023-05-10T11:06:34.815Z,3.03
2023-05-10T11:09:13.372Z,2.70
2023-05-10T11:11:52.982Z,3.17
2023-05-10T11:14:23.740Z,3.30
2023-05-10T11:16:51.444Z,3.22
2023-05-10T11:19:20.599Z,3.15
2023-05-10T11:22:06.464Z,2.40
2023-05-10T11:24:34.843Z,2.97
2023-05-10T11:27:02.395Z,2.90
2023-05-10T11:29:29.943Z,2.42
2023-05-10T11:32:00.720Z,2.72
2023-05-10T11:34:39.560Z,2.45
2023-05-10T11:37:07.145Z,3.25
2023-05-10T11:39:34.659Z,2.95
2023-05-10T11:42:02.300Z,2.53
2023-05-10T11:44:33.536Z,3.53
2023-05-10T11:47:02.625Z,2.97
2023-05-10T11:49:30.293Z,3.78
2023-05-10T11:52:12.128Z,3.42
2023-05-10T11:54:52.445Z,3.80
2023-05-10T11:57:21.255Z,3.20
2023-05-10T11:59:48.768Z,4.20
2023-05-10T12:02:16.388Z,4.47
2023-05-10T12:04:44.025Z,5.18
2023-05-10T12:07:11.696Z,5.18
2023-05-10T12:09:44.675Z,5.25
2023-05-10T12:12:17.979Z,4.50
2023-05-10T12:14:49.818Z,4.70
2023-05-10T12:17:17.266Z,6.40
2023-05-10T12:19:44.890Z,5.32
2023-05-10T12:22:12.451Z,4.38
2023-05-10T12:24:39.866Z,5.82
2023-05-10T12:27:09.600Z,4.25
2023-05-10T12:29:37.722Z,4.32
2023-05-10T12:32:05.307Z,4.55
2023-05-10T12:34:35.308Z,3.72
2023-05-10T12:37:04.031Z,5.40
2023-05-10T12:39:42.304Z,5.13
2023-05-10T12:42:10.673Z,4.57
2023-05-10T12:44:38.138Z,4.82
2023-05-10T12:47:06.070Z,4.43
2023-05-10T12:49:33.807Z,6.05
2023-05-10T12:52:01.222Z,4.55
2023-05-10T12:54:28.989Z,5.57
2023-05-10T12:56:56.409Z,4.82
2023-05-10T12:59:23.998Z,5.45
2023-05-10T13:01:51.422Z,4.88
2023-05-10T13:04:19.052Z,4.75
2023-05-10T13:06:46.586Z,5.00
2023-05-10T13:09:14.039Z,5.05
2023-05-10T13:11:41.785Z,3.80
2023-05-10T13:14:09.252Z,6.15
2023-05-10T13:16:36.839Z,6.35
2023-05-10T13:19:04.384Z,7.35
2023-05-10T13:21:31.839Z,5.30
2023-05-10T13:23:59.284Z,6.05
2023-05-10T13:26:27.268Z,6.72
2023-05-10T13:28:56.592Z,5.43
2023-05-10T13:31:24.094Z,4.40
2023-05-10T13:33:51.927Z,7.07
2023-05-10T13:36:19.438Z,5.30
2023-05-10T13:38:46.910Z,6.07
2023-05-10T13:41:14.432Z,5.68
2023-05-10T13:43:41.878Z,5.18
2023-05-10T13:46:09.439Z,5.10
2023-05-10T13:48:39.629Z,6.10
2023-05-10T13:51:07.128Z,5.28
2023-05-10T13:53:34.639Z,4.53
2023-05-10T13:56:03.236Z,4.45
2023-05-10T13:58:30.770Z,4.10
2023-05-10T14:00:58.182Z,5.10
2023-05-10T14:03:25.707Z,4.55
2023-05-10T14:05:53.213Z,5.60
2023-05-10T14:08:21.229Z,4.63
2023-05-10T14:10:49.775Z,5.60
2023-05-10T14:13:17.268Z,6.20
2023-05-10T14:15:44.815Z,5.63
2023-05-10T14:18:12.462Z,6.07
2023-05-10T14:20:39.946Z,6.15
2023-05-10T14:23:08.366Z,4.85
2023-05-10T14:25:37.114Z,5.65
2023-05-10T14:28:04.763Z,4.30
2023-05-10T14:30:33.775Z,4.38
2023-05-10T14:33:03.427Z,3.78
2023-05-10T14:35:32.208Z,3.60
2023-05-10T14:37:59.844Z,3.15
2023-05-10T14:40:27.331Z,3.25
2023-05-10T14:42:54.918Z,2.70
2023-05-10T14:45:23.576Z,2.70
2023-05-10T14:47:51.800Z,2.50
2023-05-10T14:50:35.180Z,2.67
2023-05-10T14:53:04.389Z,2.35
2023-05-10T14:55:31.822Z,2.70
2023-05-10T14:57:59.784Z,2.20
2023-05-10T15:00:28.617Z,2.60
2023-05-10T15:02:56.809Z,2.13
2023-05-10T15:05:24.733Z,2.00
2023-05-10T15:07:52.543Z,1.95
2023-05-10T15:10:20.066Z,2.00
2023-05-10T15:12:47.594Z,2.30
2023-05-10T15:15:15.268Z,2.00
2023-05-10T15:17:42.941Z,2.53
2023-05-10T15:20:10.712Z,3.03
2023-05-10T15:22:39.233Z,2.30
2023-05-10T15:25:07.158Z,2.17
2023-05-10T15:27:34.700Z,2.22
2023-05-10T15:30:02.455Z,2.92
2023-05-10T15:32:30.295Z,3.42
2023-05-10T15:34:58.056Z,3.00
2023-05-10T15:37:25.556Z,4.07
2023-05-10T15:39:53.635Z,3.47
2023-05-10T15:42:21.706Z,3.20
2023-05-10T15:44:51.220Z,3.38
2023-05-10T15:47:18.909Z,2.80
2023-05-10T15:49:46.370Z,4.05
2023-05-10T15:52:13.969Z,3.90
2023-05-10T15:54:41.745Z,2.72
2023-05-10T15:57:09.381Z,3.95
2023-05-10T15:59:37.829Z,3.72
2023-05-10T16:02:06.394Z,4.15
2023-05-10T16:04:33.869Z,3.25
2023-05-10T16:07:01.382Z,4.22
2023-05-10T16:09:28.990Z,3.92
2023-05-10T16:11:56.901Z,4.32
2023-05-10T16:14:24.820Z,4.57
2023-05-10T16:16:52.518Z,3.35
2023-05-10T16:19:20.250Z,3.63
2023-05-10T16:21:47.865Z,3.65
2023-05-10T16:24:15.579Z,4.00
2023-05-10T16:26:43.466Z,3.28
2023-05-10T16:29:11.168Z,2.83
2023-05-10T16:31:39.090Z,3.28
2023-05-10T16:34:06.591Z,4.53
2023-05-10T16:36:34.135Z,3.75
2023-05-10T16:39:01.866Z,4.47
2023-05-10T16:41:29.416Z,4.22
2023-05-10T16:43:57.696Z,3.53
2023-05-10T16:46:25.310Z,2.90
2023-05-10T16:48:52.763Z,3.47
2023-05-10T16:51:20.546Z,3.00
2023-05-10T16:53:48.030Z,3.38
2023-05-10T16:56:17.790Z,2.97
2023-05-10T16:58:47.630Z,3.22
2023-05-10T17:01:15.066Z,2.72
2023-05-10T17:03:42.793Z,2.63
2023-05-10T17:06:10.995Z,2.97
2023-05-10T17:08:38.590Z,2.90
2023-05-10T17:11:06.085Z,2.80
2023-05-10T17:13:33.732Z,2.90
2023-05-10T17:16:03.669Z,2.40
2023-05-10T17:18:31.677Z,2.90
2023-05-10T17:20:59.310Z,3.00
2023-05-10T17:23:27.037Z,2.60
2023-05-10T17:25:54.459Z,2.90
2023-05-10T17:28:22.089Z,2.92
2023-05-10T17:30:57.022Z,3.00
2023-05-10T17:33:24.511Z,2.60
2023-05-10T17:35:52.173Z,3.50
2023-05-10T17:38:19.752Z,3.45
2023-05-10T17:40:47.441Z,2.55
2023-05-10T17:43:14.945Z,2.65
2023-05-10T17:45:42.604Z,2.70
2023-05-10T17:48:11.491Z,2.17
2023-05-10T17:50:42.404Z,2.60
2023-05-10T17:53:10.246Z,2.70
2023-05-10T17:55:41.338Z,3.00
2023-05-10T17:58:11.246Z,3.13
2023-05-10T18:00:39.274Z,2.05
2023-05-10T18:03:06.886Z,3.00
2023-05-10T18:05:38.832Z,3.13
2023-05-10T18:08:07.400Z,2.60
2023-05-10T18:10:34.911Z,2.70
2023-05-10T18:13:02.644Z,2.72
2023-05-10T18:15:30.107Z,2.53
2023-05-10T18:17:57.768Z,2.80
2023-05-10T18:20:25.242Z,3.30
2023-05-10T18:22:52.754Z,2.83
2023-05-10T18:25:20.457Z,3.40
2023-05-10T18:27:48.337Z,2.90
2023-05-10T18:30:15.981Z,2.30
2023-05-10T18:32:43.574Z,2.47
2023-05-10T18:35:11.821Z,2.90
2023-05-10T18:37:39.524Z,3.55
2023-05-10T18:40:14.176Z,3.20
2023-05-10T18:42:42.079Z,3.30
2023-05-10T18:45:09.826Z,2.60
2023-05-10T18:47:37.452Z,2.10
2023-05-10T18:50:05.757Z,2.70
2023-05-10T18:52:33.384Z,2.80
2023-05-10T18:55:01.379Z,2.83
2023-05-10T18:57:29.093Z,3.30
2023-05-10T18:59:56.612Z,3.65
2023-05-10T19:02:26.708Z,2.58
2023-05-10T19:04:54.379Z,2.80
2023-05-10T19:07:21.856Z,2.35
2023-05-10T19:09:49.381Z,2.30
2023-05-10T19:12:16.836Z,2.42
2023-05-10T19:14:44.429Z,2.33
2023-05-10T19:17:11.912Z,3.08
2023-05-10T19:19:39.424Z,2.60
2023-05-10T19:22:06.842Z,2.60
2023-05-10T19:24:36.788Z,2.58
2023-05-10T19:27:04.358Z,2.35
2023-05-10T19:29:32.229Z,2.55
2023-05-10T19:32:00.543Z,2.58
2023-05-10T19:34:28.096Z,2.70
2023-05-10T19:36:56.200Z,3.15
2023-05-10T19:39:23.976Z,2.85
2023-05-10T19:41:51.581Z,2.78
2023-05-10T19:44:19.230Z,2.33
2023-05-10T19:46:47.857Z,2.60
2023-05-10T19:49:15.496Z,2.13
2023-05-10T19:51:43.047Z,3.05
2023-05-10T19:54:10.504Z,2.47
2023-05-10T19:56:37.973Z,2.25
2023-05-10T19:59:06.742Z,3.30
2023-05-10T20:01:34.492Z,3.22
2023-05-10T20:04:02.023Z,2.67
2023-05-10T20:06:29.650Z,2.83
2023-05-10T20:08:57.104Z,2.72
2023-05-10T20:11:24.696Z,2.85
2023-05-10T20:13:53.023Z,2.88
2023-05-10T20:16:20.851Z,2.60
2023-05-10T20:18:48.485Z,2.88
2023-05-10T20:21:15.971Z,3.13
2023-05-10T20:23:43.771Z,3.35
2023-05-10T20:26:11.239Z,2.85
2023-05-10T20:28:38.684Z,2.90
2023-05-10T20:31:06.278Z,2.80
2023-05-10T20:33:33.800Z,2.47
2023-05-10T20:36:01.282Z,2.70
2023-05-10T20:38:28.685Z,2.20
2023-05-10T20:40:56.154Z,2.40
2023-05-10T20:43:23.715Z,2.28
2023-05-10T20:45:51.506Z,2.60
2023-05-10T20:48:20.190Z,3.20
2023-05-10T20:50:47.809Z,3.20
2023-05-10T20:53:15.789Z,2.88
2023-05-10T20:55:43.392Z,2.20
2023-05-10T20:58:10.815Z,3.22
2023-05-10T21:00:38.354Z,2.90
2023-05-10T21:03:05.920Z,2.92
2023-05-10T21:05:33.657Z,2.90
2023-05-10T21:08:01.242Z,2.28
2023-05-10T21:10:28.732Z,2.72
2023-05-10T21:12:56.463Z,2.30
2023-05-10T21:15:24.572Z,2.70
2023-05-10T21:17:54.052Z,2.17
2023-05-10T21:20:21.737Z,2.40
2023-05-10T21:22:49.196Z,2.20
2023-05-10T21:25:17.266Z,2.38
2023-05-10T21:27:44.750Z,2.78
2023-05-10T21:30:12.453Z,2.33
2023-05-10T21:32:40.089Z,2.40
2023-05-10T21:35:08.277Z,2.95
2023-05-10T21:37:35.849Z,2.65
2023-05-10T21:40:04.865Z,2.20
2023-05-10T21:42:32.333Z,2.17
2023-05-10T21:44:59.812Z,2.45
2023-05-10T21:47:27.511Z,2.10
2023-05-10T21:49:55.079Z,2.15
2023-05-10T21:52:22.584Z,3.03
2023-05-10T21:54:50.034Z,2.13
2023-05-10T21:57:17.629Z,2.92
2023-05-10T21:59:45.176Z,2.53
2023-05-10T22:02:12.741Z,2.38
2023-05-10T22:04:40.345Z,2.70
2023-05-10T22:07:07.828Z,2.75
2023-05-10T22:09:35.528Z,2.08
2023-05-10T22:12:03.780Z,2.63
2023-05-10T22:14:31.225Z,3.40
2023-05-10T22:16:58.670Z,2.90
2023-05-10T22:19:26.569Z,2.78
2023-05-10T22:21:54.155Z,2.20
2023-05-10T22:24:21.604Z,2.40
2023-05-10T22:26:49.064Z,2.80
2023-05-10T22:29:17.021Z,2.10
2023-05-10T22:31:44.457Z,2.35
2023-05-10T22:34:12.112Z,2.20
2023-05-10T22:36:39.568Z,2.20
2023-05-10T22:39:07.179Z,2.20
2023-05-10T22:41:34.825Z,3.65
2023-05-10T22:44:04.700Z,2.55
2023-05-10T22:46:32.704Z,2.15
2023-05-10T22:49:00.218Z,2.97
2023-05-10T22:51:28.065Z,2.40
2023-05-10T22:53:55.604Z,2.05
2023-05-10T22:56:23.188Z,2.22
2023-05-10T22:58:51.145Z,2.38
2023-05-10T23:01:18.755Z,2.20
2023-05-10T23:03:46.417Z,2.22
2023-05-10T23:06:14.019Z,2.00
2023-05-10T23:08:41.433Z,1.90
2023-05-10T23:11:08.988Z,1.90
2023-05-10T23:13:36.502Z,1.80
2023-05-10T23:16:07.320Z,2.00
2023-05-10T23:18:34.940Z,1.85
2023-05-10T23:21:02.480Z,1.73
2023-05-10T23:23:30.393Z,2.00
2023-05-10T23:25:58.031Z,2.10
2023-05-10T23:28:25.542Z,1.73
2023-05-10T23:30:56.759Z,1.95
2023-05-10T23:33:25.164Z,1.85
2023-05-10T23:35:53.479Z,1.80
2023-05-10T23:38:21.663Z,1.60
2023-05-10T23:40:50.308Z,1.40
2023-05-10T23:43:19.787Z,1.38
2023-05-10T23:45:55.217Z,1.20
2023-05-10T23:48:22.803Z,1.90
2023-05-10T23:50:50.746Z,1.50
2023-05-10T23:53:18.314Z,1.60
2023-05-10T23:55:45.978Z,1.70
2023-05-10T23:58:13.678Z,1.73
